createdAt,value
2017-11-26T00:00:58.307Z,80.40
2017-11-26T00:03:26.698Z,80.60
2017-11-26T00:05:55.170Z,80.80
2017-11-26T00:08:22.833Z,80.70
2017-11-26T00:10:50.498Z,81.20
2017-11-26T00:13:18.893Z,82.40
2017-11-26T00:15:47.264Z,81.60
2017-11-26T00:18:14.922Z,81.60
2017-11-26T00:20:43.290Z,81.80
2017-11-26T00:23:10.896Z,81.80
2017-11-26T00:25:38.527Z,81.80
2017-11-26T00:28:06.903Z,81.70
2017-11-26T00:30:35.390Z,81.70
2017-11-26T00:33:03.758Z,81.60
2017-11-26T00:35:31.378Z,81.60
2017-11-26T00:37:58.977Z,81.50
2017-11-26T00:40:26.609Z,81.40
2017-11-26T00:42:54.317Z,81.60
2017-11-26T00:45:21.979Z,82.10
2017-11-26T00:47:49.642Z,83.30
2017-11-26T00:50:17.263Z,82.80
2017-11-26T00:52:45.400Z,82.90
2017-11-26T00:55:13.858Z,83.40
2017-11-26T00:57:42.247Z,83.60
2017-11-26T01:00:10.635Z,83.60
2017-11-26T01:02:39.098Z,83.60
2017-11-26T01:05:06.767Z,83.60
2017-11-26T01:07:34.432Z,83.60
2017-11-26T01:10:02.911Z,83.20
2017-11-26T01:12:30.546Z,83.00
2017-11-26T01:14:58.239Z,83.20
2017-11-26T01:17:25.867Z,82.70
2017-11-26T01:19:53.458Z,83.30
2017-11-26T01:22:26.804Z,82.20
2017-11-26T01:24:54.411Z,82.70
2017-11-26T01:27:22.087Z,82.00
2017-11-26T01:29:50.454Z,82.20
2017-11-26T01:32:18.081Z,82.10
2017-11-26T01:34:45.682Z,82.00
2017-11-26T01:37:13.308Z,81.90
2017-11-26T01:39:40.973Z,81.70
2017-11-26T01:42:08.603Z,81.40
2017-11-26T01:44:36.245Z,81.40
2017-11-26T01:47:04.626Z,82.00
2017-11-26T01:49:32.993Z,81.00
2017-11-26T01:52:00.642Z,80.90
2017-11-26T01:54:28.254Z,80.70
2017-11-26T01:56:55.887Z,80.50
2017-11-26T01:59:24.375Z,80.30
2017-11-26T02:01:52.755Z,80.20
2017-11-26T02:04:21.137Z,80.10
2017-11-26T02:06:49.508Z,80.30
2017-11-26T02:09:17.127Z,80.30
2017-11-26T02:11:44.833Z,81.20
2017-11-26T02:14:12.452Z,80.20
2017-11-26T02:16:40.053Z,80.20
2017-11-26T02:19:07.781Z,80.20
2017-11-26T02:21:35.378Z,80.00
2017-11-26T02:24:03.006Z,80.10
2017-11-26T02:26:30.705Z,80.30
2017-11-26T02:28:58.343Z,80.30
2017-11-26T02:31:37.917Z,80.20
2017-11-26T02:37:05.579Z,80.00
2017-11-26T02:39:33.994Z,80.60
2017-11-26T02:42:02.455Z,80.40
2017-11-26T02:44:30.102Z,80.40
2017-11-26T02:46:58.514Z,80.30
2017-11-26T02:49:26.997Z,79.50
2017-11-26T02:51:54.643Z,79.40
2017-11-26T02:54:22.243Z,79.40
2017-11-26T02:56:49.861Z,80.20
2017-11-26T02:59:17.538Z,80.40
2017-11-26T03:01:46.023Z,81.20
2017-11-26T03:04:14.501Z,81.10
2017-11-26T03:06:42.227Z,81.10
2017-11-26T03:09:09.930Z,80.80
2017-11-26T03:11:37.581Z,80.70
2017-11-26T03:14:05.253Z,80.70
2017-11-26T03:16:32.875Z,81.00
2017-11-26T03:19:00.466Z,81.20
2017-11-26T03:21:28.146Z,81.40
2017-11-26T03:23:56.509Z,81.40
2017-11-26T03:26:24.868Z,81.90
2017-11-26T03:28:52.486Z,81.00
2017-11-26T03:31:20.848Z,80.70
2017-11-26T03:33:48.505Z,80.60
2017-11-26T03:36:16.107Z,80.50
2017-11-26T03:38:43.720Z,80.20
2017-11-26T03:41:11.305Z,80.10
2017-11-26T03:43:39.681Z,79.90
2017-11-26T03:46:08.158Z,79.90
2017-11-26T03:48:35.776Z,79.90
2017-11-26T03:51:03.376Z,79.80
2017-11-26T03:53:32.497Z,80.30
2017-11-26T03:56:00.946Z,80.50
2017-11-26T03:58:28.620Z,81.30
2017-11-26T04:00:56.205Z,80.90
2017-11-26T04:03:24.597Z,81.30
2017-11-26T04:05:52.225Z,81.30
2017-11-26T04:08:19.822Z,81.40
2017-11-26T04:10:47.556Z,81.30
2017-11-26T04:13:16.542Z,81.50
2017-11-26T04:15:44.214Z,81.50
2017-11-26T04:18:11.900Z,81.40
2017-11-26T04:20:39.540Z,81.70
2017-11-26T04:23:07.904Z,81.70
2017-11-26T04:25:35.578Z,81.70
2017-11-26T04:28:03.241Z,81.70
2017-11-26T04:30:30.870Z,81.60
2017-11-26T04:32:58.459Z,81.60
2017-11-26T04:35:26.090Z,81.60
2017-11-26T04:37:53.698Z,81.60
2017-11-26T04:40:21.353Z,81.70
2017-11-26T04:42:49.018Z,81.10
2017-11-26T04:45:16.632Z,81.80
2017-11-26T04:47:44.226Z,81.90
2017-11-26T04:50:11.847Z,81.80
2017-11-26T04:52:39.438Z,81.80
2017-11-26T04:55:07.129Z,81.70
2017-11-26T04:57:34.797Z,81.60
2017-11-26T05:00:02.458Z,81.50
2017-11-26T05:02:30.127Z,81.60
2017-11-26T05:04:58.601Z,81.40
2017-11-26T05:07:27.081Z,81.30
2017-11-26T05:09:54.673Z,81.20
2017-11-26T05:12:22.289Z,81.40
2017-11-26T05:14:49.895Z,81.30
2017-11-26T05:17:18.275Z,81.20
2017-11-26T05:19:45.872Z,81.00
2017-11-26T05:22:13.528Z,81.00
2017-11-26T05:24:41.137Z,80.90
2017-11-26T05:27:08.796Z,80.80
2017-11-26T05:29:36.460Z,81.90
2017-11-26T05:32:04.069Z,81.00
2017-11-26T05:34:31.666Z,81.00
2017-11-26T05:36:59.281Z,80.80
2017-11-26T05:39:26.917Z,80.80
2017-11-26T05:41:54.530Z,80.70
2017-11-26T05:44:22.132Z,80.70
2017-11-26T05:46:49.805Z,80.50
2017-11-26T05:49:17.462Z,80.20
2017-11-26T05:51:45.054Z,80.20
2017-11-26T05:54:12.695Z,80.20
2017-11-26T05:56:41.061Z,80.00
2017-11-26T05:59:08.710Z,80.00
2017-11-26T06:01:36.394Z,79.60
2017-11-26T06:04:04.018Z,79.70
2017-11-26T06:06:31.608Z,80.20
2017-11-26T06:08:59.220Z,79.80
2017-11-26T06:11:26.809Z,79.70
2017-11-26T06:13:54.510Z,79.60
2017-11-26T06:16:22.101Z,79.40
2017-11-26T06:18:49.719Z,79.50
2017-11-26T06:21:17.318Z,79.40
2017-11-26T06:23:44.964Z,79.40
2017-11-26T06:26:13.338Z,79.50
2017-11-26T06:28:41.752Z,79.60
2017-11-26T06:31:09.384Z,80.30
2017-11-26T06:33:37.741Z,79.30
2017-11-26T06:36:05.359Z,79.20
2017-11-26T06:38:32.959Z,79.10
2017-11-26T06:41:00.628Z,79.00
2017-11-26T06:43:28.205Z,79.00
2017-11-26T06:45:55.830Z,79.00
2017-11-26T06:48:23.421Z,79.80
2017-11-26T06:50:51.090Z,79.00
2017-11-26T06:53:18.688Z,78.90
2017-11-26T06:55:46.935Z,78.70
2017-11-26T06:58:14.527Z,78.70
2017-11-26T07:00:42.149Z,78.50
2017-11-26T07:03:09.821Z,78.40
2017-11-26T07:05:37.487Z,78.60
2017-11-26T07:08:05.861Z,78.50
2017-11-26T07:10:33.479Z,78.40
2017-11-26T07:13:01.065Z,78.30
2017-11-26T07:15:28.702Z,78.30
2017-11-26T07:17:56.294Z,78.30
2017-11-26T07:20:23.885Z,78.20
2017-11-26T07:22:52.352Z,78.30
2017-11-26T07:25:19.946Z,78.20
2017-11-26T07:27:47.578Z,78.30
2017-11-26T07:30:15.250Z,78.20
2017-11-26T07:32:43.637Z,78.10
2017-11-26T07:35:12.106Z,77.90
2017-11-26T07:37:40.590Z,78.00
2017-11-26T07:40:08.245Z,77.90
2017-11-26T07:42:35.917Z,78.00
2017-11-26T07:45:04.286Z,77.80
2017-11-26T07:47:31.934Z,77.70
2017-11-26T07:49:59.617Z,77.60
2017-11-26T07:52:27.254Z,77.30
2017-11-26T07:54:54.846Z,78.00
2017-11-26T07:57:22.442Z,77.40
2017-11-26T07:59:50.057Z,77.00
2017-11-26T08:02:17.649Z,76.70
2017-11-26T08:04:46.037Z,76.80
2017-11-26T08:07:13.677Z,76.80
2017-11-26T08:09:42.157Z,76.90
2017-11-26T08:12:09.753Z,76.80
2017-11-26T08:14:37.478Z,76.80
2017-11-26T08:17:05.149Z,76.80
2017-11-26T08:19:33.537Z,76.50
2017-11-26T08:22:01.899Z,76.70
2017-11-26T08:24:30.289Z,76.50
2017-11-26T08:26:58.649Z,76.10
2017-11-26T08:29:26.275Z,76.10
2017-11-26T08:31:53.874Z,76.10
2017-11-26T08:34:21.554Z,76.20
2017-11-26T08:36:50.038Z,75.70
2017-11-26T08:39:17.678Z,75.70
2017-11-26T08:41:45.319Z,75.30
2017-11-26T08:44:12.935Z,75.50
2017-11-26T08:46:41.323Z,75.60
2017-11-26T08:49:09.686Z,75.40
2017-11-26T08:51:38.077Z,75.30
2017-11-26T08:54:06.440Z,75.40
2017-11-26T08:56:34.835Z,75.30
2017-11-26T08:59:03.194Z,75.10
2017-11-26T09:01:30.811Z,75.10
2017-11-26T09:03:58.433Z,74.90
2017-11-26T09:06:27.294Z,74.40
2017-11-26T09:08:57.535Z,74.40
2017-11-26T09:11:25.148Z,74.30
2017-11-26T09:13:52.747Z,74.50
2017-11-26T09:16:20.367Z,75.10
2017-11-26T09:18:47.970Z,74.30
2017-11-26T09:21:15.590Z,73.90
2017-11-26T09:23:43.215Z,73.90
2017-11-26T09:26:11.691Z,73.90
2017-11-26T09:28:39.353Z,73.90
2017-11-26T09:31:07.017Z,74.20
2017-11-26T09:33:34.623Z,73.80
2017-11-26T09:36:02.245Z,73.90
2017-11-26T09:38:29.843Z,73.60
2017-11-26T09:40:57.570Z,73.70
2017-11-26T09:43:25.169Z,73.70
2017-11-26T09:45:52.794Z,74.80
2017-11-26T09:48:20.420Z,73.90
2017-11-26T09:50:48.018Z,73.70
2017-11-26T09:53:16.563Z,73.80
2017-11-26T09:55:44.162Z,73.80
2017-11-26T09:58:11.830Z,73.70
2017-11-26T10:00:40.209Z,73.50
2017-11-26T10:03:08.598Z,73.40
2017-11-26T10:05:37.091Z,73.50
2017-11-26T10:08:05.559Z,73.60
2017-11-26T10:10:33.921Z,73.60
2017-11-26T10:13:01.594Z,73.50
2017-11-26T10:15:29.263Z,73.80
2017-11-26T10:17:57.656Z,73.60
2017-11-26T10:20:26.027Z,73.40
2017-11-26T10:22:54.422Z,73.40
2017-11-26T10:25:22.046Z,73.40
2017-11-26T10:27:49.721Z,73.50
2017-11-26T10:30:17.333Z,73.40
2017-11-26T10:32:44.953Z,73.40
2017-11-26T10:35:14.074Z,73.10
2017-11-26T10:37:41.667Z,73.10
2017-11-26T10:40:09.376Z,73.50
2017-11-26T10:42:37.780Z,73.30
2017-11-26T10:45:05.421Z,73.20
2017-11-26T10:47:33.785Z,73.40
2017-11-26T10:50:01.412Z,73.40
2017-11-26T10:52:29.138Z,73.20
2017-11-26T10:54:57.521Z,73.10
2017-11-26T10:57:25.981Z,73.10
2017-11-26T10:59:53.617Z,73.10
2017-11-26T11:02:21.214Z,72.80
2017-11-26T11:04:49.689Z,72.90
2017-11-26T11:07:17.301Z,72.90
2017-11-26T11:09:44.924Z,72.40
2017-11-26T11:12:13.393Z,73.00
2017-11-26T11:14:40.989Z,73.00
2017-11-26T11:17:08.615Z,73.10
2017-11-26T11:19:36.213Z,72.50
2017-11-26T11:22:03.827Z,73.20
2017-11-26T11:24:31.421Z,72.30
2017-11-26T11:26:59.829Z,72.40
2017-11-26T11:29:27.413Z,72.40
2017-11-26T11:31:55.030Z,72.10
2017-11-26T11:34:23.389Z,72.00
2017-11-26T11:36:51.050Z,72.00
2017-11-26T11:39:18.650Z,72.00
2017-11-26T11:41:46.250Z,72.20
2017-11-26T11:44:13.946Z,72.10
2017-11-26T11:46:42.421Z,71.70
2017-11-26T11:49:10.909Z,71.60
2017-11-26T11:51:39.275Z,71.60
2017-11-26T11:54:06.903Z,71.50
2017-11-26T11:56:34.497Z,71.60
2017-11-26T11:59:02.882Z,71.60
2017-11-26T12:01:31.237Z,71.70
2017-11-26T12:03:58.873Z,71.70
2017-11-26T12:06:26.483Z,71.90
2017-11-26T12:08:54.103Z,71.90
2017-11-26T12:11:21.710Z,71.60
2017-11-26T12:13:49.386Z,71.60
2017-11-26T12:16:17.044Z,71.30
2017-11-26T12:18:46.145Z,71.70
2017-11-26T12:21:14.539Z,70.80
2017-11-26T12:23:43.011Z,71.50
2017-11-26T12:26:11.406Z,71.40
2017-11-26T12:28:39.870Z,71.30
2017-11-26T12:31:08.259Z,71.60
2017-11-26T12:33:36.618Z,71.30
2017-11-26T12:36:04.997Z,70.90
2017-11-26T12:38:32.582Z,70.90
2017-11-26T12:41:00.966Z,71.20
2017-11-26T12:43:29.326Z,71.20
2017-11-26T12:45:56.941Z,71.10
2017-11-26T12:48:24.538Z,70.90
2017-11-26T12:50:52.218Z,71.60
2017-11-26T12:53:20.587Z,71.30
2017-11-26T12:55:48.262Z,70.70
2017-11-26T12:58:16.625Z,70.80
2017-11-26T13:00:44.234Z,70.80
2017-11-26T13:03:11.848Z,70.90
2017-11-26T13:05:39.445Z,70.70
2017-11-26T13:08:07.830Z,71.00
2017-11-26T13:10:35.475Z,70.80
2017-11-26T13:13:03.945Z,70.80
2017-11-26T13:15:31.534Z,70.80
2017-11-26T13:17:59.909Z,70.90
2017-11-26T13:20:28.277Z,70.40
2017-11-26T13:22:56.658Z,70.60
2017-11-26T13:25:25.028Z,70.70
2017-11-26T13:27:54.150Z,70.50
2017-11-26T13:30:21.798Z,70.40
2017-11-26T13:32:50.273Z,70.50
2017-11-26T13:35:18.631Z,70.40
2017-11-26T13:37:46.242Z,70.40
2017-11-26T13:40:13.872Z,70.50
2017-11-26T13:42:41.538Z,70.50
2017-11-26T13:45:10.635Z,70.60
2017-11-26T13:47:39.058Z,70.40
2017-11-26T13:50:06.657Z,70.30
2017-11-26T13:52:34.253Z,70.10
2017-11-26T13:55:02.650Z,70.00
2017-11-26T13:57:30.294Z,70.00
2017-11-26T13:59:58.766Z,70.00
2017-11-26T14:02:27.966Z,69.80
2017-11-26T14:04:56.359Z,68.90
2017-11-26T14:07:24.731Z,69.20
2017-11-26T14:09:53.205Z,69.90
2017-11-26T14:12:21.562Z,69.20
2017-11-26T14:14:49.182Z,69.10
2017-11-26T14:17:16.774Z,69.20
2017-11-26T14:19:44.474Z,69.30
2017-11-26T14:22:12.861Z,68.80
2017-11-26T14:24:41.333Z,68.80
2017-11-26T14:27:08.959Z,68.70
2017-11-26T14:29:36.563Z,69.10
2017-11-26T14:32:05.042Z,69.40
2017-11-26T14:34:34.133Z,69.20
2017-11-26T14:37:01.802Z,69.20
2017-11-26T14:39:29.394Z,69.00
2017-11-26T14:41:57.027Z,69.20
2017-11-26T14:44:26.125Z,69.30
2017-11-26T14:46:54.502Z,70.30
2017-11-26T14:49:22.105Z,69.40
2017-11-26T14:51:49.830Z,69.50
2017-11-26T14:54:18.929Z,69.50
2017-11-26T14:56:47.297Z,69.60
2017-11-26T14:59:14.971Z,69.50
2017-11-26T15:01:43.455Z,69.60
2017-11-26T15:04:11.045Z,69.60
2017-11-26T15:06:38.677Z,69.60
2017-11-26T15:09:07.775Z,69.60
2017-11-26T15:11:36.192Z,69.70
2017-11-26T15:14:03.787Z,69.70
2017-11-26T15:16:31.372Z,69.80
2017-11-26T15:18:59.042Z,70.00
2017-11-26T15:21:27.402Z,70.00
2017-11-26T15:23:55.027Z,70.00
2017-11-26T15:26:22.638Z,70.00
2017-11-26T15:28:50.305Z,70.00
2017-11-26T15:31:17.895Z,69.90
2017-11-26T15:33:45.518Z,70.00
2017-11-26T15:36:13.114Z,70.10
2017-11-26T15:38:41.500Z,70.20
2017-11-26T15:41:09.095Z,70.20
2017-11-26T15:43:36.749Z,70.30
2017-11-26T15:46:04.362Z,70.20
2017-11-26T15:48:32.718Z,71.00
2017-11-26T15:51:00.329Z,70.30
2017-11-26T15:53:27.924Z,70.50
2017-11-26T15:55:55.538Z,70.50
2017-11-26T15:58:23.910Z,70.60
2017-11-26T16:00:52.299Z,70.90
2017-11-26T16:03:20.774Z,70.90
2017-11-26T16:05:49.251Z,70.10
2017-11-26T16:08:17.631Z,71.50
2017-11-26T16:10:46.008Z,71.20
2017-11-26T16:13:13.593Z,71.10
2017-11-26T16:15:42.054Z,71.50
2017-11-26T16:18:09.714Z,71.40
2017-11-26T16:20:37.328Z,71.60
2017-11-26T16:23:04.916Z,71.80
2017-11-26T16:25:32.601Z,72.10
2017-11-26T16:28:00.270Z,72.50
2017-11-26T16:30:28.628Z,73.20
2017-11-26T16:32:56.310Z,73.20
2017-11-26T16:35:23.969Z,73.50
2017-11-26T16:37:51.646Z,74.00
2017-11-26T16:40:20.013Z,74.00
2017-11-26T16:42:47.630Z,74.00
2017-11-26T16:45:15.217Z,74.20
2017-11-26T16:47:42.843Z,74.40
2017-11-26T16:50:10.466Z,74.60
2017-11-26T16:52:38.139Z,74.70
2017-11-26T16:55:06.514Z,74.80
2017-11-26T16:57:34.944Z,74.80
2017-11-26T17:00:02.549Z,74.80
2017-11-26T17:02:30.156Z,74.50
2017-11-26T17:04:57.780Z,74.50
2017-11-26T17:07:26.133Z,74.60
2017-11-26T17:09:53.753Z,74.40
2017-11-26T17:12:21.345Z,74.70
2017-11-26T17:14:49.041Z,74.50
2017-11-26T17:17:16.716Z,74.70
2017-11-26T17:19:45.092Z,74.80
2017-11-26T17:22:12.748Z,74.80
2017-11-26T17:24:40.413Z,74.90
2017-11-26T17:27:08.010Z,75.00
2017-11-26T17:29:35.625Z,75.10
2017-11-26T17:32:03.226Z,75.30
2017-11-26T17:34:30.843Z,75.60
2017-11-26T17:36:58.442Z,75.80
2017-11-26T17:39:26.897Z,76.10
2017-11-26T17:41:54.566Z,76.20
2017-11-26T17:44:23.661Z,76.50
2017-11-26T17:46:51.286Z,76.50
2017-11-26T17:49:18.989Z,76.60
2017-11-26T17:51:46.605Z,76.80
2017-11-26T17:54:14.217Z,77.10
2017-11-26T17:56:43.342Z,77.10
2017-11-26T17:59:10.978Z,77.10
2017-11-26T18:01:39.360Z,77.20
2017-11-26T18:04:07.737Z,78.00
2017-11-26T18:06:36.215Z,77.40
2017-11-26T18:09:03.889Z,77.40
2017-11-26T18:11:32.363Z,77.70
2017-11-26T18:14:00.716Z,77.80
2017-11-26T18:16:28.406Z,77.80
2017-11-26T18:18:56.776Z,77.70
2017-11-26T18:21:24.365Z,77.70
2017-11-26T18:23:52.826Z,77.60
2017-11-26T18:26:21.182Z,77.60
2017-11-26T18:28:48.869Z,77.60
2017-11-26T18:31:16.525Z,77.80
2017-11-26T18:33:44.133Z,77.80
2017-11-26T18:36:11.727Z,77.80
2017-11-26T18:38:39.368Z,77.80
2017-11-26T18:41:06.958Z,77.70
2017-11-26T18:43:34.582Z,77.70
2017-11-26T18:46:02.218Z,77.50
2017-11-26T18:48:30.589Z,77.70
2017-11-26T18:50:58.953Z,77.80
2017-11-26T18:53:26.608Z,77.80
2017-11-26T18:55:54.205Z,77.90
2017-11-26T18:58:22.567Z,78.00
2017-11-26T19:00:51.702Z,78.00
2017-11-26T19:03:19.746Z,78.00
2017-11-26T19:05:48.120Z,78.10
2017-11-26T19:08:15.713Z,78.00
2017-11-26T19:10:43.334Z,77.90
2017-11-26T19:13:11.724Z,77.70
2017-11-26T19:15:40.922Z,77.80
2017-11-26T19:18:08.585Z,77.80
2017-11-26T19:20:37.337Z,77.80
2017-11-26T19:23:04.954Z,77.80
2017-11-26T19:25:33.330Z,77.60
2017-11-26T19:28:01.696Z,77.40
2017-11-26T19:30:31.027Z,78.00
2017-11-26T19:32:59.474Z,77.20
2017-11-26T19:35:27.141Z,77.10
2017-11-26T19:37:54.750Z,77.00
2017-11-26T19:40:22.365Z,77.10
2017-11-26T19:42:50.750Z,76.90
2017-11-26T19:45:19.149Z,77.60
2017-11-26T19:47:47.503Z,76.50
2017-11-26T19:50:15.107Z,76.50
2017-11-26T19:52:42.839Z,76.60
2017-11-26T19:55:11.202Z,76.60
2017-11-26T19:57:38.805Z,76.60
2017-11-26T20:00:06.395Z,76.50
2017-11-26T20:02:34.006Z,76.50
2017-11-26T20:05:02.374Z,76.30
2017-11-26T20:07:30.754Z,76.30
2017-11-26T20:09:59.966Z,76.30
2017-11-26T20:12:28.348Z,76.30
2017-11-26T20:14:56.701Z,76.90
2017-11-26T20:17:24.320Z,76.10
2017-11-26T20:19:51.920Z,76.00
2017-11-26T20:22:19.533Z,76.00
2017-11-26T20:24:47.126Z,75.80
2017-11-26T20:27:14.717Z,75.60
2017-11-26T20:29:42.389Z,75.60
2017-11-26T20:32:10.770Z,75.40
2017-11-26T20:34:39.218Z,75.50
2017-11-26T20:37:06.811Z,75.50
2017-11-26T20:39:34.470Z,75.50
2017-11-26T20:42:02.062Z,75.40
2017-11-26T20:44:29.682Z,75.30
2017-11-26T20:46:57.286Z,75.10
2017-11-26T20:49:25.649Z,75.00
2017-11-26T20:51:54.017Z,74.80
2017-11-26T20:54:21.629Z,74.70
2017-11-26T20:56:49.209Z,74.80
2017-11-26T20:59:16.907Z,74.80
2017-11-26T21:01:45.291Z,74.40
2017-11-26T21:04:14.385Z,74.20
2017-11-26T21:06:43.506Z,74.10
2017-11-26T21:09:11.862Z,74.10
2017-11-26T21:11:40.244Z,74.10
2017-11-26T21:14:09.350Z,74.00
2017-11-26T21:16:37.817Z,74.50
2017-11-26T21:19:06.202Z,73.20
2017-11-26T21:21:34.578Z,73.80
2017-11-26T21:24:02.170Z,73.80
2017-11-26T21:26:29.783Z,73.60
2017-11-26T21:28:57.386Z,73.60
2017-11-26T21:31:25.757Z,73.20
2017-11-26T21:33:54.224Z,73.20
2017-11-26T21:36:22.602Z,73.30
2017-11-26T21:38:50.955Z,73.00
2017-11-26T21:41:18.649Z,73.00
2017-11-26T21:43:46.309Z,73.10
2017-11-26T21:46:13.894Z,73.20
2017-11-26T21:48:42.354Z,73.20
2017-11-26T21:51:10.026Z,73.20
2017-11-26T21:53:38.411Z,73.20
2017-11-26T21:56:06.769Z,73.10
2017-11-26T21:58:34.379Z,73.10
2017-11-26T22:01:02.065Z,72.90
2017-11-26T22:03:29.771Z,72.70
2017-11-26T22:05:58.878Z,72.50
2017-11-26T22:08:27.350Z,72.50
2017-11-26T22:10:55.734Z,72.70
2017-11-26T22:13:24.938Z,72.70
2017-11-26T22:15:53.298Z,72.50
2017-11-26T22:18:20.971Z,72.50
2017-11-26T22:20:49.334Z,73.30
2017-11-26T22:23:17.015Z,72.60
2017-11-26T22:25:45.494Z,72.90
2017-11-26T22:28:13.878Z,72.80
2017-11-26T22:30:42.362Z,73.10
2017-11-26T22:33:10.715Z,73.00
2017-11-26T22:35:38.334Z,72.90
2017-11-26T22:38:05.970Z,72.80
2017-11-26T22:40:34.345Z,73.10
2017-11-26T22:43:02.721Z,72.90
2017-11-26T22:45:31.924Z,73.00
2017-11-26T22:48:00.283Z,73.10
2017-11-26T22:50:27.898Z,73.00
2017-11-26T22:52:55.491Z,74.00
2017-11-26T22:55:23.109Z,73.20
2017-11-26T22:57:51.466Z,73.50
2017-11-26T23:00:19.874Z,73.60
2017-11-26T23:02:49.150Z,73.80
2017-11-26T23:05:17.510Z,73.90
2017-11-26T23:07:45.189Z,73.90
2017-11-26T23:10:13.569Z,74.10
2017-11-26T23:12:42.697Z,74.20
2017-11-26T23:15:11.066Z,74.10
2017-11-26T23:17:38.689Z,75.00
2017-11-26T23:20:06.373Z,74.20
2017-11-26T23:22:34.746Z,74.00
2017-11-26T23:25:02.346Z,74.00
2017-11-26T23:27:29.978Z,73.90
2017-11-26T23:29:57.573Z,73.80
2017-11-26T23:32:25.177Z,73.90
2017-11-26T23:34:52.770Z,73.80
2017-11-26T23:37:21.238Z,74.00
2017-11-26T23:39:48.825Z,73.90
2017-11-26T23:42:17.220Z,73.80
2017-11-26T23:44:44.845Z,73.80
2017-11-26T23:47:14.024Z,73.70
2017-11-26T23:49:41.641Z,73.50
2017-11-26T23:52:09.275Z,73.80
2017-11-26T23:54:38.389Z,73.70
2017-11-26T23:57:06.737Z,73.70
2017-11-26T23:59:34.338Z,74.40
